Kyokushinmaru No.2 — JD2274 — position and weather

sailwx.info

Track history (hours):
 
Tides and Currents Weather Stations Pressure Air Temp Water Temp Dewpoint Dewpoint Depression Visibility Wind Speed Wind Dir Waves Ship Positions

Kyokushinmaru No.2

Last reported at 2017-Sep-14 06:29 UTC. Time now 2017-Sep-22 00:57 UTC.
Position N 34°38' E 134°59'.

Length 58 m; draft 4.6 m.

Type: Tanker. MMSI: 431501862.

Date/timePositionNaut miles runAvg speedWind from/ knotsBaromVisibWave heightAir tempDewpointWater temp
2017-Sep-14 06:29N 34°38' E 134°59'613.5
2017-Sep-14 06:00N 34°35' E 135°07'611.7
2017-Sep-14 05:30N 34°35' E 135°14'611.7
2017-Sep-14 05:00N 34°34' E 135°21'4 7.2
2017-Sep-14 04:30N 34°33' E 135°25'8 2.2
2017-Sep-14 00:50N 34°34' E 135°15'410.7
2017-Sep-14 00:30N 34°34' E 135°11'611.9
2017-Sep-14 00:00N 34°35' E 135°04'  
2017-Sep-10 04:08N 34°37' E 134°57'310.2
2017-Sep-10 03:50N 34°37' E 135°01'411.1
2017-Sep-10 03:30N 34°36' E 135°05'5 9.8
2017-Sep-10 03:00N 34°35' E 135°11'510.6
2017-Sep-10 02:31N 34°34' E 135°17'611.6
2017-Sep-10 02:00N 34°33' E 135°24'1 0.3
2017-Sep-09 23:28N 34°34' E 135°25'4 6.1
2017-Sep-09 22:49N 34°32' E 135°20'1 1.3
2017-Sep-09 21:53N 34°32' E 135°19'0 0.0
2017-Sep-09 13:59N 34°32' E 135°19'0 0.0
2017-Sep-09 13:29N 34°32' E 135°19'0 0.0
2017-Sep-09 12:53N 34°32' E 135°19'0 0.0
2017-Sep-09 12:23N 34°32' E 135°19'1 2.4
2017-Sep-09 11:57N 34°32' E 135°18'511.3
2017-Sep-09 11:30N 34°34' E 135°12'612.1
2017-Sep-09 11:00N 34°35' E 135°05'31 2.0
2017-Sep-08 19:41N 34°09' E 134°45'410.9
2017-Sep-08 19:18N 34°06' E 134°48'  
2017-Sep-05 08:21N 34°37' E 135°01'411.8
2017-Sep-05 08:00N 34°35' E 135°06'510.2
2017-Sep-05 07:30N 34°35' E 135°12'611.6
2017-Sep-05 06:59N 34°34' E 135°19'5 1.7
2017-Sep-05 04:03N 34°34' E 135°25'1 5.1
2017-Sep-05 03:54N 34°33' E 135°24'1 1.5
2017-Sep-05 03:30N 34°33' E 135°24'6 6.5
2017-Sep-05 02:31N 34°34' E 135°16'010.8
2017-Sep-05 02:29N 34°34' E 135°16'510.2
2017-Sep-05 02:00N 34°35' E 135°10'  
Track history (hours):
 
Tides and Currents Weather Stations Pressure Air Temp Water Temp Dewpoint Dewpoint Depression Visibility Wind Speed Wind Dir Waves Ship Positions

Kyokushinmaru No.2

Last reported at 2017-Sep-14 06:29 UTC. Time now 2017-Sep-22 00:57 UTC.
Position N 34°38' E 134°59'.

Length 58 m; draft 4.6 m.

Type: Tanker. MMSI: 431501862.

Date/timePositionNaut miles runAvg speedWind from/ knotsBaromVisibWave heightAir tempDewpointWater temp
2017-Sep-14 06:29N 34°38' E 134°59'613.5
2017-Sep-14 06:00N 34°35' E 135°07'611.7
2017-Sep-14 05:30N 34°35' E 135°14'611.7
2017-Sep-14 05:00N 34°34' E 135°21'4 7.2
2017-Sep-14 04:30N 34°33' E 135°25'8 2.2
2017-Sep-14 00:50N 34°34' E 135°15'410.7
2017-Sep-14 00:30N 34°34' E 135°11'611.9
2017-Sep-14 00:00N 34°35' E 135°04'  
2017-Sep-10 04:08N 34°37' E 134°57'310.2
2017-Sep-10 03:50N 34°37' E 135°01'411.1
2017-Sep-10 03:30N 34°36' E 135°05'5 9.8
2017-Sep-10 03:00N 34°35' E 135°11'510.6
2017-Sep-10 02:31N 34°34' E 135°17'611.6
2017-Sep-10 02:00N 34°33' E 135°24'1 0.3
2017-Sep-09 23:28N 34°34' E 135°25'4 6.1
2017-Sep-09 22:49N 34°32' E 135°20'1 1.3
2017-Sep-09 21:53N 34°32' E 135°19'0 0.0
2017-Sep-09 13:59N 34°32' E 135°19'0 0.0
2017-Sep-09 13:29N 34°32' E 135°19'0 0.0
2017-Sep-09 12:53N 34°32' E 135°19'0 0.0
2017-Sep-09 12:23N 34°32' E 135°19'1 2.4
2017-Sep-09 11:57N 34°32' E 135°18'511.3
2017-Sep-09 11:30N 34°34' E 135°12'612.1
2017-Sep-09 11:00N 34°35' E 135°05'31 2.0
2017-Sep-08 19:41N 34°09' E 134°45'410.9
2017-Sep-08 19:18N 34°06' E 134°48'  
2017-Sep-05 08:21N 34°37' E 135°01'411.8
2017-Sep-05 08:00N 34°35' E 135°06'510.2
2017-Sep-05 07:30N 34°35' E 135°12'611.6
2017-Sep-05 06:59N 34°34' E 135°19'5 1.7
2017-Sep-05 04:03N 34°34' E 135°25'1 5.1
2017-Sep-05 03:54N 34°33' E 135°24'1 1.5
2017-Sep-05 03:30N 34°33' E 135°24'6 6.5
2017-Sep-05 02:31N 34°34' E 135°16'010.8
2017-Sep-05 02:29N 34°34' E 135°16'510.2
2017-Sep-05 02:00N 34°35' E 135°10'  

Dump ship's entire track history